createdAt,value
2023-08-07T00:00:46.200Z,15.20
2023-08-07T00:01:46.238Z,15.21
2023-08-07T00:02:46.256Z,15.23
2023-08-07T00:03:46.201Z,15.17
2023-08-07T00:04:46.190Z,15.17
2023-08-07T00:05:46.179Z,15.15
2023-08-07T00:06:48.147Z,15.13
2023-08-07T00:07:46.177Z,15.12
2023-08-07T00:08:46.156Z,15.11
2023-08-07T00:09:46.120Z,15.13
2023-08-07T00:10:46.097Z,15.15
2023-08-07T00:11:46.067Z,15.13
2023-08-07T00:12:46.095Z,15.12
2023-08-07T00:13:46.046Z,15.13
2023-08-07T00:14:46.054Z,15.13
2023-08-07T00:15:46.087Z,15.13
2023-08-07T00:16:46.086Z,15.08
2023-08-07T00:17:46.064Z,15.06
2023-08-07T00:18:46.023Z,15.08
2023-08-07T00:19:45.986Z,15.08
2023-08-07T00:20:46.020Z,15.08
2023-08-07T00:21:45.984Z,15.09
2023-08-07T00:22:45.981Z,15.09
2023-08-07T00:23:45.941Z,15.11
2023-08-07T00:24:45.978Z,15.12
2023-08-07T00:25:45.982Z,15.13
2023-08-07T00:26:45.939Z,15.13
2023-08-07T00:27:45.881Z,15.15
2023-08-07T00:28:45.955Z,15.15
2023-08-07T00:29:45.886Z,15.15
2023-08-07T00:30:45.904Z,15.13
2023-08-07T00:31:46.867Z,15.12
2023-08-07T00:32:45.881Z,15.11
2023-08-07T00:33:45.896Z,15.08
2023-08-07T00:34:45.854Z,15.06
2023-08-07T00:35:45.811Z,15.03
2023-08-07T00:36:45.889Z,15.02
2023-08-07T00:37:45.778Z,15.03
2023-08-07T00:38:45.782Z,15.05
2023-08-07T00:39:45.753Z,15.06
2023-08-07T00:40:45.777Z,15.08
2023-08-07T00:41:45.754Z,15.08
2023-08-07T00:42:45.823Z,15.08
2023-08-07T00:43:45.739Z,15.08
2023-08-07T00:44:45.720Z,15.08
2023-08-07T00:45:45.680Z,15.08
2023-08-07T00:46:45.958Z,15.08
2023-08-07T00:47:45.722Z,15.09
2023-08-07T00:48:45.659Z,15.08
2023-08-07T00:49:45.701Z,15.06
2023-08-07T00:50:47.624Z,15.06
2023-08-07T00:51:45.627Z,15.06
2023-08-07T00:52:45.650Z,15.08
2023-08-07T00:53:45.610Z,15.09
2023-08-07T00:54:45.637Z,15.12
2023-08-07T00:55:45.568Z,15.06
2023-08-07T00:56:45.577Z,15.08
2023-08-07T00:57:45.563Z,15.09
2023-08-07T00:58:45.597Z,15.11
2023-08-07T00:59:45.538Z,15.06
2023-08-07T01:00:45.576Z,15.08
2023-08-07T01:01:45.514Z,15.09
2023-08-07T01:02:45.585Z,15.09
2023-08-07T01:03:45.502Z,15.11
2023-08-07T01:04:45.496Z,15.12
2023-08-07T01:05:45.479Z,15.12
2023-08-07T01:06:45.471Z,15.11
2023-08-07T01:07:45.505Z,15.06
2023-08-07T01:08:45.444Z,15.03
2023-08-07T01:09:45.443Z,15.03
2023-08-07T01:10:45.414Z,14.99
2023-08-07T01:11:45.490Z,14.98
2023-08-07T01:12:45.395Z,14.98
2023-08-07T01:13:45.410Z,14.99
2023-08-07T01:14:45.383Z,14.99
2023-08-07T01:15:45.367Z,14.99
2023-08-07T01:16:45.366Z,14.99
2023-08-07T01:17:45.399Z,15.01
2023-08-07T01:18:45.348Z,15.02
2023-08-07T01:19:45.370Z,15.01
2023-08-07T01:20:45.320Z,14.99
2023-08-07T01:21:45.320Z,15.01
2023-08-07T01:22:45.345Z,15.02
2023-08-07T01:23:45.302Z,15.01
2023-08-07T01:24:45.259Z,15.03
2023-08-07T01:25:45.299Z,15.02
2023-08-07T01:26:45.256Z,15.02
2023-08-07T01:27:45.245Z,15.03
2023-08-07T01:28:45.237Z,15.03
2023-08-07T01:29:45.255Z,15.05
2023-08-07T01:30:45.224Z,15.05
2023-08-07T01:31:45.203Z,15.06
2023-08-07T01:32:45.215Z,15.05
2023-08-07T01:33:45.166Z,15.05
2023-08-07T01:34:45.156Z,15.05
2023-08-07T01:35:45.176Z,15.05
2023-08-07T01:36:45.120Z,15.03
2023-08-07T01:37:45.139Z,15.08
2023-08-07T01:38:45.104Z,15.08
2023-08-07T01:39:45.124Z,15.06
2023-08-07T01:40:45.128Z,15.06
2023-08-07T01:41:45.098Z,15.06
2023-08-07T01:42:45.079Z,15.06
2023-08-07T01:43:45.067Z,15.06
2023-08-07T01:44:45.044Z,15.06
2023-08-07T01:45:45.055Z,15.02
2023-08-07T01:46:45.068Z,15.02
2023-08-07T01:47:45.106Z,14.99
2023-08-07T01:48:44.987Z,14.98
2023-08-07T01:49:45.020Z,14.95
2023-08-07T01:50:45.015Z,14.95
2023-08-07T01:51:45.046Z,14.93
2023-08-07T01:52:44.954Z,14.90
2023-08-07T01:53:44.984Z,14.91
2023-08-07T01:54:44.928Z,14.90
2023-08-07T01:55:44.963Z,14.91
2023-08-07T01:56:44.902Z,14.87
2023-08-07T01:57:44.935Z,14.91
2023-08-07T01:58:44.897Z,14.91
2023-08-07T01:59:44.877Z,14.91
2023-08-07T02:00:44.862Z,14.91
2023-08-07T02:01:44.896Z,14.93
2023-08-07T02:02:44.919Z,14.95
2023-08-07T02:03:44.892Z,14.98
2023-08-07T02:04:44.855Z,15.01
2023-08-07T02:05:44.848Z,14.99
2023-08-07T02:06:44.783Z,14.95
2023-08-07T02:07:44.801Z,14.94
2023-08-07T02:08:44.784Z,14.94
2023-08-07T02:09:44.827Z,14.91
2023-08-07T02:10:44.770Z,14.91
2023-08-07T02:11:44.809Z,14.88
2023-08-07T02:12:44.743Z,14.90
2023-08-07T02:13:44.766Z,14.87
2023-08-07T02:14:44.761Z,14.88
2023-08-07T02:15:44.738Z,14.90
2023-08-07T02:16:44.734Z,14.88
2023-08-07T02:17:44.705Z,14.87
2023-08-07T02:18:44.654Z,14.88
2023-08-07T02:19:44.672Z,14.90
2023-08-07T02:20:44.691Z,14.88
2023-08-07T02:21:44.716Z,14.88
2023-08-07T02:22:44.625Z,14.87
2023-08-07T02:23:44.662Z,14.88
2023-08-07T02:24:44.631Z,14.87
2023-08-07T02:25:44.640Z,14.87
2023-08-07T02:26:44.591Z,14.86
2023-08-07T02:27:44.593Z,14.87
2023-08-07T02:28:44.541Z,14.87
2023-08-07T02:29:44.583Z,14.88
2023-08-07T02:30:44.588Z,14.88
2023-08-07T02:31:44.586Z,14.87
2023-08-07T02:32:44.565Z,14.87
2023-08-07T02:33:44.509Z,14.86
2023-08-07T02:34:44.526Z,14.87
2023-08-07T02:35:44.523Z,14.87
2023-08-07T02:36:44.511Z,14.88
2023-08-07T02:37:44.494Z,14.90
2023-08-07T02:38:44.446Z,14.91
2023-08-07T02:39:44.452Z,14.91
2023-08-07T02:40:44.413Z,14.90
2023-08-07T02:41:44.511Z,14.91
2023-08-07T02:42:44.431Z,14.91
2023-08-07T02:43:44.421Z,14.91
2023-08-07T02:44:44.412Z,14.94
2023-08-07T02:45:44.448Z,14.95
2023-08-07T02:46:44.350Z,14.95
2023-08-07T02:47:44.376Z,14.98
2023-08-07T02:48:44.337Z,14.98
2023-08-07T02:49:44.382Z,14.99
2023-08-07T02:50:44.296Z,14.99
2023-08-07T02:51:44.337Z,14.98
2023-08-07T02:52:46.051Z,14.95
2023-08-07T02:53:44.288Z,14.99
2023-08-07T02:54:44.282Z,14.99
2023-08-07T02:55:44.274Z,14.99
2023-08-07T02:56:44.251Z,15.01
2023-08-07T02:57:44.286Z,15.01
2023-08-07T02:58:44.210Z,15.02
2023-08-07T02:59:44.242Z,15.03
2023-08-07T03:00:44.203Z,15.03
2023-08-07T03:01:44.301Z,15.02
2023-08-07T03:02:44.277Z,15.05
2023-08-07T03:03:44.194Z,15.05
2023-08-07T03:04:44.179Z,15.05
2023-08-07T03:05:44.209Z,15.03
2023-08-07T03:06:44.143Z,15.02
2023-08-07T03:07:44.191Z,15.02
2023-08-07T03:08:44.107Z,15.01
2023-08-07T03:09:44.134Z,15.01
2023-08-07T03:10:44.131Z,15.02
2023-08-07T03:11:44.123Z,15.01
2023-08-07T03:12:44.053Z,15.01
2023-08-07T03:13:44.102Z,14.99
2023-08-07T03:14:44.047Z,14.98
2023-08-07T03:15:44.110Z,14.98
2023-08-07T03:16:44.035Z,14.98
2023-08-07T03:17:44.047Z,14.95
2023-08-07T03:18:44.027Z,14.98
2023-08-07T03:19:44.015Z,14.99
2023-08-07T03:20:43.971Z,14.99
2023-08-07T03:21:43.997Z,14.98
2023-08-07T03:22:43.939Z,14.93
2023-08-07T03:23:43.989Z,14.93
2023-08-07T03:24:43.967Z,14.93
2023-08-07T03:25:43.954Z,14.93
2023-08-07T03:26:44.392Z,14.94
2023-08-07T03:27:43.948Z,14.95
2023-08-07T03:28:43.913Z,14.95
2023-08-07T03:29:46.011Z,14.95
2023-08-07T03:30:43.858Z,14.95
2023-08-07T03:31:43.997Z,14.98
2023-08-07T03:32:44.390Z,14.99
2023-08-07T03:33:43.851Z,15.01
2023-08-07T03:34:43.868Z,15.02
2023-08-07T03:35:43.854Z,14.99
2023-08-07T03:36:43.808Z,14.99
2023-08-07T03:37:43.855Z,14.98
2023-08-07T03:38:43.777Z,14.98
2023-08-07T03:39:43.785Z,14.98
2023-08-07T03:40:43.773Z,14.95
2023-08-07T03:41:43.773Z,14.95
2023-08-07T03:42:43.746Z,14.94
2023-08-07T03:43:43.757Z,14.94
2023-08-07T03:44:43.724Z,14.95
2023-08-07T03:45:43.767Z,14.94
2023-08-07T03:46:43.734Z,14.94
2023-08-07T03:47:43.735Z,14.94
2023-08-07T03:48:43.685Z,14.93
2023-08-07T03:49:43.664Z,14.94
2023-08-07T03:50:43.656Z,14.93
2023-08-07T03:51:43.680Z,14.93
2023-08-07T03:52:43.621Z,14.91
2023-08-07T03:53:43.632Z,14.93
2023-08-07T03:54:43.604Z,14.91
2023-08-07T03:55:43.644Z,14.93
2023-08-07T03:56:43.587Z,14.93
2023-08-07T03:57:43.581Z,14.93
2023-08-07T03:58:43.574Z,14.95
2023-08-07T03:59:43.569Z,14.98
2023-08-07T04:00:43.540Z,14.95
2023-08-07T04:01:43.537Z,14.95
2023-08-07T04:02:43.725Z,14.98
2023-08-07T04:03:43.771Z,14.98
2023-08-07T04:04:43.494Z,15.01
2023-08-07T04:05:43.705Z,14.99
2023-08-07T04:06:43.467Z,15.02
2023-08-07T04:07:43.483Z,15.02
2023-08-07T04:08:43.452Z,15.02
2023-08-07T04:09:43.461Z,15.02
2023-08-07T04:10:43.411Z,15.01
2023-08-07T04:11:43.442Z,15.01
2023-08-07T04:12:43.412Z,15.01
2023-08-07T04:13:43.503Z,15.01
2023-08-07T04:14:43.357Z,15.01
2023-08-07T04:15:43.396Z,14.99
2023-08-07T04:16:43.363Z,15.01
2023-08-07T04:17:43.393Z,14.99
2023-08-07T04:18:43.351Z,14.99
2023-08-07T04:19:43.334Z,14.99
2023-08-07T04:20:43.299Z,14.98
2023-08-07T04:21:43.335Z,14.98
2023-08-07T04:22:43.277Z,15.01
2023-08-07T04:23:43.775Z,15.02
2023-08-07T04:24:43.270Z,15.02
2023-08-07T04:25:43.303Z,15.02
2023-08-07T04:26:43.278Z,15.02
2023-08-07T04:27:43.256Z,15.03
2023-08-07T04:28:43.227Z,15.02
2023-08-07T04:29:43.226Z,15.03
2023-08-07T04:30:43.206Z,15.03
2023-08-07T04:31:43.198Z,15.03
2023-08-07T04:32:43.181Z,15.03
2023-08-07T04:33:43.195Z,15.01
2023-08-07T04:34:43.137Z,15.02
2023-08-07T04:35:43.197Z,15.02
2023-08-07T04:36:43.141Z,15.03
2023-08-07T04:37:43.183Z,15.05
2023-08-07T04:38:43.105Z,15.03
2023-08-07T04:39:43.104Z,15.05
2023-08-07T04:40:43.090Z,15.05
2023-08-07T04:41:43.105Z,15.06
2023-08-07T04:42:43.125Z,15.08
2023-08-07T04:43:43.076Z,15.09
2023-08-07T04:44:43.035Z,15.09
2023-08-07T04:45:43.047Z,15.08
2023-08-07T04:46:43.059Z,15.08
2023-08-07T04:47:43.067Z,15.08
2023-08-07T04:48:43.005Z,15.06
2023-08-07T04:49:43.049Z,15.08
2023-08-07T04:50:43.040Z,15.08
2023-08-07T04:51:42.977Z,15.11
2023-08-07T04:52:43.004Z,15.12
2023-08-07T04:53:42.997Z,15.13
2023-08-07T04:54:42.918Z,15.13
2023-08-07T04:55:42.957Z,15.17
2023-08-07T04:56:42.920Z,15.19
2023-08-07T04:57:42.966Z,15.20
2023-08-07T04:58:42.874Z,15.23
2023-08-07T04:59:42.895Z,15.23
2023-08-07T05:00:42.939Z,15.24
2023-08-07T05:01:42.872Z,15.24
2023-08-07T05:02:43.010Z,15.24
2023-08-07T05:03:42.993Z,15.27
2023-08-07T05:04:42.836Z,15.28
2023-08-07T05:05:42.848Z,15.30
2023-08-07T05:06:42.785Z,15.31
2023-08-07T05:07:42.802Z,15.33
2023-08-07T05:08:42.806Z,15.30
2023-08-07T05:09:42.812Z,15.28
2023-08-07T05:10:42.736Z,15.26
2023-08-07T05:11:42.760Z,15.26
2023-08-07T05:12:42.751Z,15.26
2023-08-07T05:13:42.727Z,15.24
2023-08-07T05:14:42.707Z,15.26
2023-08-07T05:15:42.730Z,15.23
2023-08-07T05:16:42.777Z,15.23
2023-08-07T05:17:42.810Z,15.23
2023-08-07T05:18:42.660Z,15.24
2023-08-07T05:19:42.672Z,15.24
2023-08-07T05:20:42.653Z,15.23
2023-08-07T05:21:42.662Z,15.26
2023-08-07T05:22:43.356Z,15.28
2023-08-07T05:23:42.640Z,15.31
2023-08-07T05:24:42.611Z,15.31
2023-08-07T05:25:42.579Z,15.33
2023-08-07T05:26:42.603Z,15.35
2023-08-07T05:27:43.512Z,15.35
2023-08-07T05:28:42.576Z,15.35
2023-08-07T05:29:42.590Z,15.35
2023-08-07T05:30:42.785Z,15.36
2023-08-07T05:31:42.508Z,15.38
2023-08-07T05:32:42.593Z,15.39
2023-08-07T05:33:42.491Z,15.41
2023-08-07T05:34:42.539Z,15.41
2023-08-07T05:35:42.465Z,15.42
2023-08-07T05:36:42.485Z,15.43
2023-08-07T05:37:42.520Z,15.42
2023-08-07T05:38:42.546Z,15.41
2023-08-07T05:39:42.421Z,15.42
2023-08-07T05:40:42.485Z,15.39
2023-08-07T05:41:42.390Z,15.45
2023-08-07T05:42:42.399Z,15.43
2023-08-07T05:43:42.426Z,15.43
2023-08-07T05:44:42.395Z,15.43
2023-08-07T05:45:42.384Z,15.42
2023-08-07T05:46:42.361Z,15.41
2023-08-07T05:47:42.373Z,15.42
2023-08-07T05:48:42.363Z,15.41
2023-08-07T05:49:42.302Z,15.39
2023-08-07T05:50:42.351Z,15.42
2023-08-07T05:51:42.288Z,15.41
2023-08-07T05:52:42.316Z,15.41
2023-08-07T05:53:42.278Z,15.38
2023-08-07T05:54:42.273Z,15.36
2023-08-07T05:55:42.288Z,15.35
2023-08-07T05:56:42.251Z,15.36
2023-08-07T05:57:42.245Z,15.36
2023-08-07T05:58:42.242Z,15.38
2023-08-07T05:59:42.236Z,15.41
2023-08-07T06:00:42.220Z,15.41
2023-08-07T06:01:42.276Z,15.43
2023-08-07T06:02:42.245Z,15.48
2023-08-07T06:03:42.159Z,15.51
2023-08-07T06:04:42.293Z,15.51
2023-08-07T06:05:42.134Z,15.54
2023-08-07T06:06:42.178Z,15.56
2023-08-07T06:07:42.105Z,15.59
2023-08-07T06:08:42.140Z,15.59
2023-08-07T06:09:42.299Z,15.59
2023-08-07T06:10:42.090Z,15.57
2023-08-07T06:11:42.062Z,15.56
2023-08-07T06:12:42.069Z,15.57
2023-08-07T06:13:42.073Z,15.57
2023-08-07T06:14:42.063Z,15.59
2023-08-07T06:15:42.030Z,15.57
2023-08-07T06:16:42.069Z,15.57
2023-08-07T06:17:42.071Z,15.57
2023-08-07T06:18:42.020Z,15.59
2023-08-07T06:19:41.989Z,15.59
2023-08-07T06:20:42.027Z,15.60
2023-08-07T06:21:41.956Z,15.57
2023-08-07T06:22:41.955Z,15.59
2023-08-07T06:23:41.958Z,15.57
2023-08-07T06:24:41.952Z,15.57
2023-08-07T06:25:41.958Z,15.57
2023-08-07T06:26:41.921Z,15.56
2023-08-07T06:27:41.904Z,15.57
2023-08-07T06:28:41.921Z,15.54
2023-08-07T06:29:41.868Z,15.54
2023-08-07T06:30:41.920Z,15.56
2023-08-07T06:31:41.905Z,15.57
2023-08-07T06:32:41.922Z,15.56
2023-08-07T06:33:41.814Z,15.56
2023-08-07T06:34:41.850Z,15.56
2023-08-07T06:35:41.832Z,15.57
2023-08-07T06:36:41.831Z,15.59
2023-08-07T06:37:41.769Z,15.60
2023-08-07T06:38:41.813Z,15.60
2023-08-07T06:39:41.757Z,15.61
2023-08-07T06:40:41.828Z,15.63
2023-08-07T06:41:41.729Z,15.60
2023-08-07T06:42:41.763Z,15.59
2023-08-07T06:43:41.738Z,15.61
2023-08-07T06:44:41.713Z,15.64
2023-08-07T06:45:41.730Z,15.64
2023-08-07T06:46:41.695Z,15.66
2023-08-07T06:47:41.692Z,15.66
2023-08-07T06:48:41.696Z,15.68
2023-08-07T06:49:41.647Z,15.70
2023-08-07T06:50:41.722Z,15.72
2023-08-07T06:51:41.625Z,15.70
2023-08-07T06:52:41.639Z,15.70
2023-08-07T06:53:41.643Z,15.68
2023-08-07T06:54:41.653Z,15.70
2023-08-07T06:55:41.624Z,15.67
2023-08-07T06:56:41.592Z,15.66
2023-08-07T06:57:41.548Z,15.63
2023-08-07T06:58:41.562Z,15.60
2023-08-07T06:59:41.557Z,15.57
2023-08-07T07:00:41.546Z,15.60
2023-08-07T07:01:41.585Z,15.60
2023-08-07T07:02:41.566Z,15.60
2023-08-07T07:03:41.513Z,15.61
2023-08-07T07:04:41.530Z,15.61
2023-08-07T07:05:41.479Z,15.64
2023-08-07T07:06:41.545Z,15.61
2023-08-07T07:07:41.450Z,15.64
2023-08-07T07:08:41.462Z,15.67
2023-08-07T07:09:41.426Z,15.67
2023-08-07T07:10:41.472Z,15.68
2023-08-07T07:11:41.391Z,15.72
2023-08-07T07:12:41.423Z,15.70
2023-08-07T07:13:41.393Z,15.75
2023-08-07T07:14:41.413Z,15.79
2023-08-07T07:15:41.416Z,15.92
2023-08-07T07:16:41.370Z,15.97
2023-08-07T07:17:41.393Z,16.03
2023-08-07T07:18:41.343Z,16.07
2023-08-07T07:19:41.314Z,16.06
2023-08-07T07:20:41.330Z,16.09
2023-08-07T07:21:41.308Z,16.09
2023-08-07T07:22:41.312Z,16.12
2023-08-07T07:23:41.272Z,16.18
2023-08-07T07:24:41.270Z,16.30
2023-08-07T07:25:41.245Z,16.40
2023-08-07T07:26:41.298Z,16.40
2023-08-07T07:27:41.541Z,16.41
2023-08-07T07:28:41.249Z,16.35
2023-08-07T07:29:41.200Z,16.26
2023-08-07T07:30:41.270Z,16.16
2023-08-07T07:31:41.201Z,16.12
2023-08-07T07:32:41.270Z,16.11
2023-08-07T07:33:41.730Z,16.11
2023-08-07T07:34:41.177Z,16.06
2023-08-07T07:35:41.159Z,15.99
2023-08-07T07:36:41.147Z,15.94
2023-08-07T07:37:41.104Z,15.89
2023-08-07T07:38:41.163Z,15.93
2023-08-07T07:39:41.132Z,15.94
2023-08-07T07:40:41.134Z,15.97
2023-08-07T07:41:41.076Z,16.01
2023-08-07T07:42:41.098Z,16.07
2023-08-07T07:43:41.066Z,16.14
2023-08-07T07:44:41.186Z,16.12
2023-08-07T07:45:41.095Z,16.09
2023-08-07T07:46:41.052Z,16.11
2023-08-07T07:47:41.061Z,16.15
2023-08-07T07:48:41.012Z,16.11
2023-08-07T07:49:40.980Z,16.07
2023-08-07T07:50:41.005Z,16.07
2023-08-07T07:51:40.962Z,16.09
2023-08-07T07:52:41.010Z,16.07
2023-08-07T07:53:40.989Z,16.06
2023-08-07T07:54:42.917Z,16.09
2023-08-07T07:55:40.938Z,16.06
2023-08-07T07:56:40.972Z,16.11
2023-08-07T07:57:40.891Z,16.15
2023-08-07T07:58:40.903Z,16.18
2023-08-07T07:59:40.873Z,16.23
2023-08-07T08:00:40.900Z,16.23
2023-08-07T08:01:40.860Z,16.26
2023-08-07T08:02:42.496Z,16.25
2023-08-07T08:03:42.847Z,16.27
2023-08-07T08:04:40.904Z,16.30
2023-08-07T08:05:41.045Z,16.27
2023-08-07T08:06:41.025Z,16.25
2023-08-07T08:07:40.775Z,16.27
2023-08-07T08:08:40.802Z,16.26
2023-08-07T08:09:40.775Z,16.22
2023-08-07T08:10:40.790Z,16.18
2023-08-07T08:11:40.744Z,16.16
2023-08-07T08:12:40.776Z,16.18
2023-08-07T08:13:40.721Z,16.16
2023-08-07T08:14:55.379Z,16.18
2023-08-07T08:15:41.779Z,16.15
2023-08-07T08:16:40.737Z,16.15
2023-08-07T08:17:40.698Z,16.16
2023-08-07T08:18:40.694Z,16.20
2023-08-07T08:19:50.060Z,16.22
2023-08-07T08:20:41.676Z,16.23
2023-08-07T08:21:41.799Z,16.26
2023-08-07T08:22:40.647Z,16.30
2023-08-07T08:23:40.606Z,16.31
2023-08-07T08:24:42.609Z,16.34
2023-08-07T08:25:40.580Z,16.35
2023-08-07T08:26:40.609Z,16.40
2023-08-07T08:27:40.589Z,16.48
2023-08-07T08:28:40.582Z,16.53
2023-08-07T08:29:40.591Z,16.53
2023-08-07T08:30:40.551Z,16.50
2023-08-07T08:31:40.572Z,16.53
2023-08-07T08:32:40.640Z,16.55
2023-08-07T08:33:40.516Z,16.59
2023-08-07T08:34:40.515Z,16.63
2023-08-07T08:35:40.472Z,16.63
2023-08-07T08:36:40.523Z,16.70
2023-08-07T08:37:40.468Z,16.67
2023-08-07T08:38:40.481Z,16.63
2023-08-07T08:39:40.427Z,16.63
2023-08-07T08:40:40.432Z,16.63
2023-08-07T08:41:42.234Z,16.59
2023-08-07T08:42:40.413Z,16.56
2023-08-07T08:43:40.397Z,16.52
2023-08-07T08:44:40.438Z,16.52
2023-08-07T08:45:40.377Z,16.55
2023-08-07T08:46:40.468Z,16.60
2023-08-07T08:47:40.367Z,16.65
2023-08-07T08:48:41.161Z,16.65
2023-08-07T08:49:40.323Z,16.65
2023-08-07T08:50:40.353Z,16.65
2023-08-07T08:51:40.401Z,16.60
2023-08-07T08:52:40.312Z,16.58
2023-08-07T08:53:40.316Z,16.52
2023-08-07T08:54:40.287Z,16.50
2023-08-07T08:55:40.645Z,16.49
2023-08-07T08:56:41.274Z,16.49
2023-08-07T08:57:40.224Z,16.48
2023-08-07T08:58:40.314Z,16.49
2023-08-07T08:59:40.196Z,16.56
2023-08-07T09:00:40.225Z,16.60
2023-08-07T09:01:40.269Z,16.70
2023-08-07T09:02:40.186Z,16.77
2023-08-07T09:03:40.187Z,16.88
2023-08-07T09:04:40.167Z,16.98
2023-08-07T09:05:40.149Z,17.07
2023-08-07T09:06:42.069Z,17.14
2023-08-07T09:07:40.134Z,17.20
2023-08-07T09:08:40.179Z,17.22
2023-08-07T09:09:40.085Z,17.35
2023-08-07T09:10:40.111Z,17.41
2023-08-07T09:11:40.063Z,17.62
2023-08-07T09:12:40.094Z,17.62
2023-08-07T09:13:40.061Z,17.64
2023-08-07T09:14:40.056Z,17.73
2023-08-07T09:15:40.038Z,17.82
2023-08-07T09:16:40.143Z,17.85
2023-08-07T09:17:40.047Z,17.87
2023-08-07T09:18:40.056Z,17.79
2023-08-07T09:19:40.003Z,17.70
2023-08-07T09:20:40.004Z,17.64
2023-08-07T09:21:40.021Z,17.53
2023-08-07T09:22:39.979Z,17.46
2023-08-07T09:23:39.946Z,17.51
2023-08-07T09:24:39.955Z,17.57
2023-08-07T09:25:39.912Z,17.63
2023-08-07T09:26:39.929Z,17.63
2023-08-07T09:27:39.903Z,17.63
2023-08-07T09:28:39.941Z,17.57
2023-08-07T09:29:39.927Z,17.57
2023-08-07T09:30:39.976Z,17.54
2023-08-07T09:31:39.869Z,17.54
2023-08-07T09:32:39.933Z,17.47
2023-08-07T09:33:39.821Z,17.43
2023-08-07T09:34:39.840Z,17.36
2023-08-07T09:35:39.808Z,17.30
2023-08-07T09:36:39.810Z,17.28
2023-08-07T09:37:39.789Z,17.28
2023-08-07T09:38:39.899Z,17.28
2023-08-07T09:39:39.778Z,17.30
2023-08-07T09:40:39.744Z,17.36
2023-08-07T09:41:39.821Z,17.54
2023-08-07T09:42:39.730Z,17.78
2023-08-07T09:43:39.728Z,17.91
2023-08-07T09:44:39.737Z,18.03
2023-08-07T09:45:39.758Z,18.13
2023-08-07T09:46:39.779Z,18.13
2023-08-07T09:47:39.749Z,18.10
2023-08-07T09:48:39.667Z,17.99
2023-08-07T09:49:39.699Z,17.91
2023-08-07T09:50:39.653Z,17.78
2023-08-07T09:51:39.688Z,17.67
2023-08-07T09:52:39.613Z,17.55
2023-08-07T09:53:39.633Z,17.48
2023-08-07T09:54:39.624Z,17.44
2023-08-07T09:55:39.610Z,17.46
2023-08-07T09:56:39.577Z,17.53
2023-08-07T09:57:39.617Z,17.54
2023-08-07T09:58:39.547Z,17.59
2023-08-07T09:59:39.560Z,17.54
2023-08-07T10:00:39.531Z,17.57
2023-08-07T10:01:39.671Z,17.74
2023-08-07T10:02:39.632Z,17.87
2023-08-07T10:03:39.645Z,18.02
2023-08-07T10:04:39.486Z,18.07
2023-08-07T10:05:39.541Z,18.02
2023-08-07T10:06:39.506Z,18.02
2023-08-07T10:07:39.491Z,17.97
2023-08-07T10:08:39.448Z,17.94
2023-08-07T10:09:39.452Z,17.99
2023-08-07T10:10:39.425Z,17.95
2023-08-07T10:11:39.424Z,18.07
2023-08-07T10:12:39.447Z,18.17
2023-08-07T10:13:40.046Z,18.15
2023-08-07T10:14:39.361Z,18.04
2023-08-07T10:15:39.400Z,18.17
2023-08-07T10:16:39.409Z,18.18
2023-08-07T10:17:39.441Z,18.15
2023-08-07T10:18:39.348Z,18.37
2023-08-07T10:19:39.345Z,18.47
2023-08-07T10:20:39.363Z,18.52
2023-08-07T10:21:39.324Z,18.58
2023-08-07T10:22:39.372Z,18.64
2023-08-07T10:23:40.299Z,18.65
2023-08-07T10:24:39.255Z,18.57
2023-08-07T10:25:39.286Z,18.55
2023-08-07T10:26:39.241Z,18.54
2023-08-07T10:27:39.236Z,18.47
2023-08-07T10:28:39.219Z,18.44
2023-08-07T10:29:40.206Z,18.47
2023-08-07T10:30:39.212Z,18.57
2023-08-07T10:31:39.264Z,18.47
2023-08-07T10:32:39.259Z,18.46
2023-08-07T10:33:39.177Z,18.39
2023-08-07T10:34:39.171Z,18.25
2023-08-07T10:35:39.144Z,18.19
2023-08-07T10:36:39.126Z,18.17
2023-08-07T10:37:39.136Z,18.15
2023-08-07T10:38:39.146Z,18.13
2023-08-07T10:39:39.156Z,18.13
2023-08-07T10:40:39.190Z,18.19
2023-08-07T10:41:39.103Z,18.24
2023-08-07T10:42:39.054Z,18.19
2023-08-07T10:43:39.131Z,18.12
2023-08-07T10:44:39.060Z,18.04
2023-08-07T10:45:39.132Z,18.03
2023-08-07T10:46:39.097Z,18.02
2023-08-07T10:47:39.106Z,17.95
2023-08-07T10:48:38.997Z,17.89
2023-08-07T10:49:39.048Z,17.87
2023-08-07T10:50:38.973Z,17.88
2023-08-07T10:51:39.016Z,17.89
2023-08-07T10:52:39.042Z,17.95
2023-08-07T10:53:38.968Z,18.18
2023-08-07T10:54:38.948Z,18.22
2023-08-07T10:55:38.944Z,18.15
2023-08-07T10:56:39.111Z,18.07
2023-08-07T10:57:38.919Z,17.97
2023-08-07T10:58:38.905Z,17.91
2023-08-07T10:59:38.920Z,17.84
2023-08-07T11:00:38.871Z,17.76
2023-08-07T11:01:38.991Z,17.71
2023-08-07T11:02:38.898Z,17.69
2023-08-07T11:03:38.907Z,17.64
2023-08-07T11:04:38.897Z,17.67
2023-08-07T11:05:38.866Z,17.64
2023-08-07T11:06:38.832Z,17.66
2023-08-07T11:07:38.800Z,17.66
2023-08-07T11:08:38.824Z,17.63
2023-08-07T11:09:38.805Z,17.62
2023-08-07T11:10:38.791Z,17.62
2023-08-07T11:11:38.762Z,17.67
2023-08-07T11:12:38.778Z,17.66
2023-08-07T11:13:38.804Z,17.71
2023-08-07T11:14:38.696Z,17.64
2023-08-07T11:15:38.743Z,17.57
2023-08-07T11:16:38.691Z,17.63
2023-08-07T11:17:38.788Z,17.71
2023-08-07T11:18:38.659Z,17.79
2023-08-07T11:19:38.683Z,17.92
2023-08-07T11:20:38.644Z,18.12
2023-08-07T11:21:38.669Z,18.13
2023-08-07T11:22:38.733Z,18.17
2023-08-07T11:23:38.618Z,18.21
2023-08-07T11:24:38.601Z,18.28
2023-08-07T11:25:38.618Z,18.39
2023-08-07T11:26:38.591Z,18.46
2023-08-07T11:27:38.652Z,18.59
2023-08-07T11:28:38.553Z,18.70
2023-08-07T11:29:38.591Z,18.73
2023-08-07T11:30:38.523Z,18.70
2023-08-07T11:31:38.582Z,18.62
2023-08-07T11:32:39.497Z,18.49
2023-08-07T11:33:38.526Z,18.44
2023-08-07T11:34:38.513Z,18.42
2023-08-07T11:35:38.515Z,18.34
2023-08-07T11:36:38.484Z,18.28
2023-08-07T11:37:38.481Z,18.28
2023-08-07T11:38:38.435Z,18.31
2023-08-07T11:39:38.497Z,18.31
2023-08-07T11:40:38.417Z,18.27
2023-08-07T11:41:38.451Z,18.28
2023-08-07T11:42:38.396Z,18.22
2023-08-07T11:43:38.436Z,18.29
2023-08-07T11:44:38.398Z,18.33
2023-08-07T11:45:38.424Z,18.31
2023-08-07T11:46:38.358Z,18.42
2023-08-07T11:47:38.472Z,18.57
2023-08-07T11:48:38.346Z,18.68
2023-08-07T11:49:38.395Z,18.65
2023-08-07T11:50:38.300Z,18.72
2023-08-07T11:51:38.319Z,18.79
2023-08-07T11:52:38.286Z,18.73
2023-08-07T11:53:38.330Z,18.67
2023-08-07T11:54:38.279Z,18.61
2023-08-07T11:55:38.262Z,18.68
2023-08-07T11:56:38.250Z,18.72
2023-08-07T11:57:38.262Z,18.72
2023-08-07T11:58:38.251Z,18.61
2023-08-07T11:59:38.262Z,18.58
2023-08-07T12:00:38.189Z,18.55
2023-08-07T12:01:38.245Z,18.50
2023-08-07T12:02:38.314Z,18.40
2023-08-07T12:03:38.374Z,18.28
2023-08-07T12:04:38.157Z,18.19
2023-08-07T12:05:38.162Z,18.13
2023-08-07T12:06:38.140Z,18.07
2023-08-07T12:07:38.158Z,18.07
2023-08-07T12:08:38.143Z,18.12
2023-08-07T12:09:38.108Z,18.28
2023-08-07T12:10:38.086Z,18.49
2023-08-07T12:11:38.107Z,18.58
2023-08-07T12:12:38.072Z,18.73
2023-08-07T12:13:38.078Z,18.79
2023-08-07T12:14:38.835Z,18.74
2023-08-07T12:15:38.062Z,18.74
2023-08-07T12:16:38.037Z,18.86
2023-08-07T12:17:38.043Z,18.82
2023-08-07T12:18:37.989Z,18.90
2023-08-07T12:19:38.015Z,18.99
2023-08-07T12:20:37.999Z,19.13
2023-08-07T12:21:37.980Z,19.14
2023-08-07T12:22:38.010Z,19.18
2023-08-07T12:23:37.966Z,19.18
2023-08-07T12:24:37.947Z,19.18
2023-08-07T12:25:37.947Z,19.24
2023-08-07T12:26:37.916Z,19.23
2023-08-07T12:27:37.942Z,19.25
2023-08-07T12:28:38.867Z,19.24
2023-08-07T12:29:37.944Z,19.28
2023-08-07T12:30:37.873Z,19.36
2023-08-07T12:31:39.976Z,19.42
2023-08-07T12:32:37.861Z,19.39
2023-08-07T12:33:37.855Z,19.17
2023-08-07T12:35:15.194Z,19.02
2023-08-07T12:35:38.865Z,18.80
2023-08-07T12:36:37.893Z,18.70
2023-08-07T12:37:37.815Z,18.58
2023-08-07T12:38:37.762Z,18.42
2023-08-07T12:40:37.788Z,18.17
2023-08-07T12:42:37.756Z,17.85
2023-08-07T12:43:37.766Z,17.74
2023-08-07T12:44:38.703Z,17.70
2023-08-07T12:46:39.935Z,17.55
2023-08-07T12:47:37.817Z,17.48
2023-08-07T12:48:37.668Z,17.40
2023-08-07T12:49:37.672Z,17.23
2023-08-07T12:50:37.661Z,17.14
2023-08-07T12:51:37.652Z,17.06
2023-08-07T12:52:37.685Z,16.74
2023-08-07T12:53:37.664Z,16.56
2023-08-07T12:54:37.587Z,16.52
2023-08-07T12:55:37.600Z,16.48